sensor_id;sensor_type;location;lat;lon;timestamp;temperature;humidity
60309;DHT22;50313;52.894;6.492;2024-03-29T00:01:17;8.20;62.40
60309;DHT22;50313;52.894;6.492;2024-03-29T00:03:43;8.20;18.30
60309;DHT22;50313;52.894;6.492;2024-03-29T00:06:09;8.20;4.70
60309;DHT22;50313;52.894;6.492;2024-03-29T00:08:35;8.20;1.00
60309;DHT22;50313;52.894;6.492;2024-03-29T00:11:01;8.20;1.00
60309;DHT22;50313;52.894;6.492;2024-03-29T00:13:28;8.20;35.20
60309;DHT22;50313;52.894;6.492;2024-03-29T00:15:54;8.10;6.30
60309;DHT22;50313;52.894;6.492;2024-03-29T00:18:19;8.30;1.00
60309;DHT22;50313;52.894;6.492;2024-03-29T00:20:45;8.30;1.00
60309;DHT22;50313;52.894;6.492;2024-03-29T00:23:11;8.10;1.00
60309;DHT22;50313;52.894;6.492;2024-03-29T00:25:37;8.20;1.00
60309;DHT22;50313;52.894;6.492;2024-03-29T00:28:03;8.20;1.00
60309;DHT22;50313;52.894;6.492;2024-03-29T00:30:29;8.20;1.00
60309;DHT22;50313;52.894;6.492;2024-03-29T00:32:54;8.20;1.00
60309;DHT22;50313;52.894;6.492;2024-03-29T00:35:20;8.10;1.00
60309;DHT22;50313;52.894;6.492;2024-03-29T00:37:49;8.10;8.10
60309;DHT22;50313;52.894;6.492;2024-03-29T00:40:15;8.00;97.90
60309;DHT22;50313;52.894;6.492;2024-03-29T00:42:41;8.10;4.70
60309;DHT22;50313;52.894;6.492;2024-03-29T00:45:07;8.10;66.20
60309;DHT22;50313;52.894;6.492;2024-03-29T00:47:33;8.10;55.70
60309;DHT22;50313;52.894;6.492;2024-03-29T00:50:00;8.10;36.50
60309;DHT22;50313;52.894;6.492;2024-03-29T00:52:26;8.20;1.00
60309;DHT22;50313;52.894;6.492;2024-03-29T00:54:52;8.20;1.00
60309;DHT22;50313;52.894;6.492;2024-03-29T00:57:18;8.20;1.00
60309;DHT22;50313;52.894;6.492;2024-03-29T00:59:44;8.20;1.00
60309;DHT22;50313;52.894;6.492;2024-03-29T01:02:11;8.10;1.00
60309;DHT22;50313;52.894;6.492;2024-03-29T01:04:37;8.10;1.00
60309;DHT22;50313;52.894;6.492;2024-03-29T01:07:04;8.10;1.00
60309;DHT22;50313;52.894;6.492;2024-03-29T01:09:30;8.20;1.00
60309;DHT22;50313;52.894;6.492;2024-03-29T01:11:55;8.30;99.90
60309;DHT22;50313;52.894;6.492;2024-03-29T01:14:21;8.20;1.00
60309;DHT22;50313;52.894;6.492;2024-03-29T01:16:47;8.10;1.00
60309;DHT22;50313;52.894;6.492;2024-03-29T01:19:13;8.20;1.00
60309;DHT22;50313;52.894;6.492;2024-03-29T01:21:39;8.10;1.00
60309;DHT22;50313;52.894;6.492;2024-03-29T01:24:05;8.10;1.00
60309;DHT22;50313;52.894;6.492;2024-03-29T01:26:31;8.00;1.00
60309;DHT22;50313;52.894;6.492;2024-03-29T01:28:56;8.00;15.80
60309;DHT22;50313;52.894;6.492;2024-03-29T01:31:23;8.00;45.40
60309;DHT22;50313;52.894;6.492;2024-03-29T01:33:49;8.10;11.40
60309;DHT22;50313;52.894;6.492;2024-03-29T01:36:15;8.10;1.00
60309;DHT22;50313;52.894;6.492;2024-03-29T01:38:41;8.00;27.40
60309;DHT22;50313;52.894;6.492;2024-03-29T01:41:07;8.10;1.00
60309;DHT22;50313;52.894;6.492;2024-03-29T01:43:33;8.10;1.00
60309;DHT22;50313;52.894;6.492;2024-03-29T01:45:59;8.10;95.20
60309;DHT22;50313;52.894;6.492;2024-03-29T01:48:26;7.90;99.90
60309;DHT22;50313;52.894;6.492;2024-03-29T01:50:56;8.00;99.90
60309;DHT22;50313;52.894;6.492;2024-03-29T01:53:24;8.00;99.90
60309;DHT22;50313;52.894;6.492;2024-03-29T01:55:50;7.90;99.90
60309;DHT22;50313;52.894;6.492;2024-03-29T01:58:17;7.90;99.90
60309;DHT22;50313;52.894;6.492;2024-03-29T02:00:52;7.90;99.90
60309;DHT22;50313;52.894;6.492;2024-03-29T02:03:20;7.90;75.00
60309;DHT22;50313;52.894;6.492;2024-03-29T02:05:47;7.90;99.90
60309;DHT22;50313;52.894;6.492;2024-03-29T02:08:14;7.80;99.90
60309;DHT22;50313;52.894;6.492;2024-03-29T02:10:42;7.80;99.90
60309;DHT22;50313;52.894;6.492;2024-03-29T02:13:08;7.80;99.90
60309;DHT22;50313;52.894;6.492;2024-03-29T02:15:34;7.80;99.90
60309;DHT22;50313;52.894;6.492;2024-03-29T02:18:00;7.90;99.90
60309;DHT22;50313;52.894;6.492;2024-03-29T02:20:26;7.90;99.90
60309;DHT22;50313;52.894;6.492;2024-03-29T02:23:03;7.90;99.90
60309;DHT22;50313;52.894;6.492;2024-03-29T02:25:31;7.70;99.90
60309;DHT22;50313;52.894;6.492;2024-03-29T02:27:58;7.70;99.90
60309;DHT22;50313;52.894;6.492;2024-03-29T02:30:25;7.70;99.90
60309;DHT22;50313;52.894;6.492;2024-03-29T02:32:50;7.70;99.90
60309;DHT22;50313;52.894;6.492;2024-03-29T02:35:16;7.70;99.90
60309;DHT22;50313;52.894;6.492;2024-03-29T02:37:42;7.80;99.90
60309;DHT22;50313;52.894;6.492;2024-03-29T02:40:08;7.70;99.90
60309;DHT22;50313;52.894;6.492;2024-03-29T02:42:34;7.60;99.90
60309;DHT22;50313;52.894;6.492;2024-03-29T02:45:02;7.60;99.90
60309;DHT22;50313;52.894;6.492;2024-03-29T02:47:28;7.70;99.90
60309;DHT22;50313;52.894;6.492;2024-03-29T02:49:54;7.70;99.90
60309;DHT22;50313;52.894;6.492;2024-03-29T02:52:20;7.60;99.90
60309;DHT22;50313;52.894;6.492;2024-03-29T02:54:46;7.60;99.90
60309;DHT22;50313;52.894;6.492;2024-03-29T02:57:11;7.70;99.90
60309;DHT22;50313;52.894;6.492;2024-03-29T02:59:39;7.70;99.90
60309;DHT22;50313;52.894;6.492;2024-03-29T03:02:06;7.70;99.90
60309;DHT22;50313;52.894;6.492;2024-03-29T03:04:31;7.70;99.90
60309;DHT22;50313;52.894;6.492;2024-03-29T03:06:57;7.70;99.90
60309;DHT22;50313;52.894;6.492;2024-03-29T03:09:43;7.70;99.90
60309;DHT22;50313;52.894;6.492;2024-03-29T03:12:29;7.70;99.90
60309;DHT22;50313;52.894;6.492;2024-03-29T03:14:55;7.80;99.90
60309;DHT22;50313;52.894;6.492;2024-03-29T03:17:21;7.80;99.90
60309;DHT22;50313;52.894;6.492;2024-03-29T03:19:46;7.80;99.90
60309;DHT22;50313;52.894;6.492;2024-03-29T03:22:12;7.80;99.90
60309;DHT22;50313;52.894;6.492;2024-03-29T03:24:38;7.80;99.90
60309;DHT22;50313;52.894;6.492;2024-03-29T03:27:04;7.70;99.90
60309;DHT22;50313;52.894;6.492;2024-03-29T03:29:30;7.70;99.90
60309;DHT22;50313;52.894;6.492;2024-03-29T03:31:56;7.70;99.90
60309;DHT22;50313;52.894;6.492;2024-03-29T03:34:21;7.80;99.90
60309;DHT22;50313;52.894;6.492;2024-03-29T03:36:47;7.70;99.90
60309;DHT22;50313;52.894;6.492;2024-03-29T03:39:13;7.70;99.90
60309;DHT22;50313;52.894;6.492;2024-03-29T03:41:39;7.80;99.90
60309;DHT22;50313;52.894;6.492;2024-03-29T03:44:05;7.80;99.90
60309;DHT22;50313;52.894;6.492;2024-03-29T03:46:31;7.80;99.90
60309;DHT22;50313;52.894;6.492;2024-03-29T03:48:57;7.80;90.00
60309;DHT22;50313;52.894;6.492;2024-03-29T03:51:22;7.80;99.90
60309;DHT22;50313;52.894;6.492;2024-03-29T03:53:48;7.80;99.90
60309;DHT22;50313;52.894;6.492;2024-03-29T03:56:14;7.80;99.90
60309;DHT22;50313;52.894;6.492;2024-03-29T03:58:40;7.80;99.90
60309;DHT22;50313;52.894;6.492;2024-03-29T04:01:06;7.90;17.00
60309;DHT22;50313;52.894;6.492;2024-03-29T04:03:32;7.90;1.00
60309;DHT22;50313;52.894;6.492;2024-03-29T04:05:57;8.00;1.00
60309;DHT22;50313;52.894;6.492;2024-03-29T04:08:23;8.00;1.00
60309;DHT22;50313;52.894;6.492;2024-03-29T04:10:49;7.90;1.00
60309;DHT22;50313;52.894;6.492;2024-03-29T04:13:15;7.90;1.00
60309;DHT22;50313;52.894;6.492;2024-03-29T04:15:40;8.00;1.00
60309;DHT22;50313;52.894;6.492;2024-03-29T04:18:06;7.90;56.40
60309;DHT22;50313;52.894;6.492;2024-03-29T04:20:32;8.00;1.00
60309;DHT22;50313;52.894;6.492;2024-03-29T04:22:58;7.90;9.60
60309;DHT22;50313;52.894;6.492;2024-03-29T04:25:24;8.00;1.90
60309;DHT22;50313;52.894;6.492;2024-03-29T04:27:49;7.90;1.00
60309;DHT22;50313;52.894;6.492;2024-03-29T04:30:15;8.00;1.00
60309;DHT22;50313;52.894;6.492;2024-03-29T04:32:41;7.90;76.20
60309;DHT22;50313;52.894;6.492;2024-03-29T04:35:07;8.00;1.00
60309;DHT22;50313;52.894;6.492;2024-03-29T04:37:33;7.90;1.00
60309;DHT22;50313;52.894;6.492;2024-03-29T04:39:59;8.00;17.70
60309;DHT22;50313;52.894;6.492;2024-03-29T04:42:25;7.90;1.00
60309;DHT22;50313;52.894;6.492;2024-03-29T04:44:51;8.00;1.00
60309;DHT22;50313;52.894;6.492;2024-03-29T04:47:16;8.00;1.00
60309;DHT22;50313;52.894;6.492;2024-03-29T04:49:42;8.00;1.00
60309;DHT22;50313;52.894;6.492;2024-03-29T04:52:08;8.00;37.20
60309;DHT22;50313;52.894;6.492;2024-03-29T04:54:35;8.10;1.00
60309;DHT22;50313;52.894;6.492;2024-03-29T04:57:01;8.10;1.00
60309;DHT22;50313;52.894;6.492;2024-03-29T04:59:28;8.10;1.00
60309;DHT22;50313;52.894;6.492;2024-03-29T05:01:55;8.20;1.00
60309;DHT22;50313;52.894;6.492;2024-03-29T05:04:23;8.20;99.90
60309;DHT22;50313;52.894;6.492;2024-03-29T05:06:53;8.30;99.90
60309;DHT22;50313;52.894;6.492;2024-03-29T05:09:19;8.30;99.90
60309;DHT22;50313;52.894;6.492;2024-03-29T05:11:45;8.30;99.90
60309;DHT22;50313;52.894;6.492;2024-03-29T05:14:13;8.40;99.90
60309;DHT22;50313;52.894;6.492;2024-03-29T05:16:40;8.30;1.00
60309;DHT22;50313;52.894;6.492;2024-03-29T05:19:06;8.30;1.00
60309;DHT22;50313;52.894;6.492;2024-03-29T05:21:32;8.40;99.90
60309;DHT22;50313;52.894;6.492;2024-03-29T05:23:58;8.40;1.00
60309;DHT22;50313;52.894;6.492;2024-03-29T05:26:24;8.40;99.90
60309;DHT22;50313;52.894;6.492;2024-03-29T05:28:50;8.40;1.00
60309;DHT22;50313;52.894;6.492;2024-03-29T05:31:16;8.40;99.90
60309;DHT22;50313;52.894;6.492;2024-03-29T05:33:42;8.40;1.00
60309;DHT22;50313;52.894;6.492;2024-03-29T05:36:08;8.50;1.00
60309;DHT22;50313;52.894;6.492;2024-03-29T05:38:37;8.40;1.00
60309;DHT22;50313;52.894;6.492;2024-03-29T05:41:03;8.40;1.00
60309;DHT22;50313;52.894;6.492;2024-03-29T05:43:29;8.40;1.00
60309;DHT22;50313;52.894;6.492;2024-03-29T05:45:55;8.40;1.00
60309;DHT22;50313;52.894;6.492;2024-03-29T05:48:21;8.50;1.00
60309;DHT22;50313;52.894;6.492;2024-03-29T05:50:46;8.50;1.00
60309;DHT22;50313;52.894;6.492;2024-03-29T05:53:12;8.60;1.00
60309;DHT22;50313;52.894;6.492;2024-03-29T05:55:38;8.60;1.00
60309;DHT22;50313;52.894;6.492;2024-03-29T05:58:04;8.60;1.00
60309;DHT22;50313;52.894;6.492;2024-03-29T06:00:32;8.60;1.00
60309;DHT22;50313;52.894;6.492;2024-03-29T06:03:01;8.60;1.00
60309;DHT22;50313;52.894;6.492;2024-03-29T06:05:30;8.60;1.00
60309;DHT22;50313;52.894;6.492;2024-03-29T06:07:56;8.60;1.00
60309;DHT22;50313;52.894;6.492;2024-03-29T06:10:22;8.70;1.00
60309;DHT22;50313;52.894;6.492;2024-03-29T06:12:48;8.70;1.00
60309;DHT22;50313;52.894;6.492;2024-03-29T06:15:14;8.70;1.00
60309;DHT22;50313;52.894;6.492;2024-03-29T06:17:58;8.70;1.00
60309;DHT22;50313;52.894;6.492;2024-03-29T06:20:24;8.70;1.00
60309;DHT22;50313;52.894;6.492;2024-03-29T06:22:50;8.80;1.00
60309;DHT22;50313;52.894;6.492;2024-03-29T06:25:16;8.80;1.00
60309;DHT22;50313;52.894;6.492;2024-03-29T06:27:42;8.80;1.00
60309;DHT22;50313;52.894;6.492;2024-03-29T06:30:15;8.80;62.40
60309;DHT22;50313;52.894;6.492;2024-03-29T06:32:45;8.80;99.90
60309;DHT22;50313;52.894;6.492;2024-03-29T06:35:11;8.80;99.90
60309;DHT22;50313;52.894;6.492;2024-03-29T06:37:38;8.80;99.90
60309;DHT22;50313;52.894;6.492;2024-03-29T06:40:05;8.80;99.90
60309;DHT22;50313;52.894;6.492;2024-03-29T06:42:32;8.80;99.90
60309;DHT22;50313;52.894;6.492;2024-03-29T06:44:58;8.80;99.90
60309;DHT22;50313;52.894;6.492;2024-03-29T06:47:25;8.80;99.90
60309;DHT22;50313;52.894;6.492;2024-03-29T06:49:51;8.90;99.90
60309;DHT22;50313;52.894;6.492;2024-03-29T06:52:16;8.80;1.00
60309;DHT22;50313;52.894;6.492;2024-03-29T06:54:42;8.80;99.90
60309;DHT22;50313;52.894;6.492;2024-03-29T06:57:08;8.80;99.90
60309;DHT22;50313;52.894;6.492;2024-03-29T06:59:35;8.90;99.90
60309;DHT22;50313;52.894;6.492;2024-03-29T07:02:01;8.90;1.00
60309;DHT22;50313;52.894;6.492;2024-03-29T07:04:27;8.90;99.90
60309;DHT22;50313;52.894;6.492;2024-03-29T07:06:54;9.00;1.00
60309;DHT22;50313;52.894;6.492;2024-03-29T07:09:21;9.00;99.90
60309;DHT22;50313;52.894;6.492;2024-03-29T07:11:50;9.00;99.90
60309;DHT22;50313;52.894;6.492;2024-03-29T07:14:17;9.00;64.90
60309;DHT22;50313;52.894;6.492;2024-03-29T07:16:43;8.90;99.90
60309;DHT22;50313;52.894;6.492;2024-03-29T07:19:10;8.90;1.00
60309;DHT22;50313;52.894;6.492;2024-03-29T07:21:39;8.90;99.90
60309;DHT22;50313;52.894;6.492;2024-03-29T07:24:05;9.00;1.00
60309;DHT22;50313;52.894;6.492;2024-03-29T07:26:32;9.00;13.70
60309;DHT22;50313;52.894;6.492;2024-03-29T07:28:58;9.10;99.90
60309;DHT22;50313;52.894;6.492;2024-03-29T07:31:24;9.00;55.20
60309;DHT22;50313;52.894;6.492;2024-03-29T07:33:49;9.00;99.90
60309;DHT22;50313;52.894;6.492;2024-03-29T07:36:15;9.10;1.00
60309;DHT22;50313;52.894;6.492;2024-03-29T07:38:42;9.20;31.20
60309;DHT22;50313;52.894;6.492;2024-03-29T07:41:09;9.00;1.00
60309;DHT22;50313;52.894;6.492;2024-03-29T07:43:55;8.90;1.00
60309;DHT22;50313;52.894;6.492;2024-03-29T07:46:33;9.00;99.90
60309;DHT22;50313;52.894;6.492;2024-03-29T07:49:00;9.10;99.90
60309;DHT22;50313;52.894;6.492;2024-03-29T07:51:26;9.20;1.00
60309;DHT22;50313;52.894;6.492;2024-03-29T07:53:52;9.20;93.70
60309;DHT22;50313;52.894;6.492;2024-03-29T07:56:18;9.20;99.90
60309;DHT22;50313;52.894;6.492;2024-03-29T07:58:44;9.10;99.90
60309;DHT22;50313;52.894;6.492;2024-03-29T08:01:10;9.10;99.90
60309;DHT22;50313;52.894;6.492;2024-03-29T08:03:35;9.20;99.90
60309;DHT22;50313;52.894;6.492;2024-03-29T08:06:03;9.10;99.90
60309;DHT22;50313;52.894;6.492;2024-03-29T08:08:32;9.10;99.90
60309;DHT22;50313;52.894;6.492;2024-03-29T08:10:59;9.10;99.90
60309;DHT22;50313;52.894;6.492;2024-03-29T08:13:26;9.10;99.90
60309;DHT22;50313;52.894;6.492;2024-03-29T08:15:59;9.10;99.90
60309;DHT22;50313;52.894;6.492;2024-03-29T08:18:28;9.00;99.90
60309;DHT22;50313;52.894;6.492;2024-03-29T08:20:55;8.90;99.90
60309;DHT22;50313;52.894;6.492;2024-03-29T08:23:24;8.80;99.90
60309;DHT22;50313;52.894;6.492;2024-03-29T08:25:50;8.80;99.90
60309;DHT22;50313;52.894;6.492;2024-03-29T08:28:20;8.90;99.90
60309;DHT22;50313;52.894;6.492;2024-03-29T08:30:46;9.10;99.90
60309;DHT22;50313;52.894;6.492;2024-03-29T08:33:12;9.20;99.90
60309;DHT22;50313;52.894;6.492;2024-03-29T08:35:38;9.40;99.90
60309;DHT22;50313;52.894;6.492;2024-03-29T08:38:08;9.50;99.90
60309;DHT22;50313;52.894;6.492;2024-03-29T08:40:34;9.70;99.90
60309;DHT22;50313;52.894;6.492;2024-03-29T08:43:03;9.60;99.90
60309;DHT22;50313;52.894;6.492;2024-03-29T08:45:30;9.70;99.90
60309;DHT22;50313;52.894;6.492;2024-03-29T08:47:56;9.70;99.90
60309;DHT22;50313;52.894;6.492;2024-03-29T08:50:21;9.60;99.90
60309;DHT22;50313;52.894;6.492;2024-03-29T08:52:47;9.60;99.90
60309;DHT22;50313;52.894;6.492;2024-03-29T08:55:13;9.50;99.90
60309;DHT22;50313;52.894;6.492;2024-03-29T08:57:39;9.50;99.90
60309;DHT22;50313;52.894;6.492;2024-03-29T09:00:06;9.60;99.90
60309;DHT22;50313;52.894;6.492;2024-03-29T09:02:32;9.80;99.90
60309;DHT22;50313;52.894;6.492;2024-03-29T09:04:58;9.80;99.90
60309;DHT22;50313;52.894;6.492;2024-03-29T09:07:24;9.90;99.90
60309;DHT22;50313;52.894;6.492;2024-03-29T09:09:50;10.10;99.90
60309;DHT22;50313;52.894;6.492;2024-03-29T09:12:16;10.10;99.90
60309;DHT22;50313;52.894;6.492;2024-03-29T09:14:45;10.10;99.90
60309;DHT22;50313;52.894;6.492;2024-03-29T09:17:11;9.90;99.90
60309;DHT22;50313;52.894;6.492;2024-03-29T09:19:37;10.10;99.90
60309;DHT22;50313;52.894;6.492;2024-03-29T09:22:04;10.10;99.90
60309;DHT22;50313;52.894;6.492;2024-03-29T09:24:30;10.20;99.90
60309;DHT22;50313;52.894;6.492;2024-03-29T09:26:57;10.10;1.00
60309;DHT22;50313;52.894;6.492;2024-03-29T09:29:23;9.90;1.00
60309;DHT22;50313;52.894;6.492;2024-03-29T09:31:48;9.90;1.00
60309;DHT22;50313;52.894;6.492;2024-03-29T09:34:14;9.90;1.00
60309;DHT22;50313;52.894;6.492;2024-03-29T09:36:40;10.10;99.90
60309;DHT22;50313;52.894;6.492;2024-03-29T09:39:07;10.20;27.50
60309;DHT22;50313;52.894;6.492;2024-03-29T09:41:34;10.10;99.90
60309;DHT22;50313;52.894;6.492;2024-03-29T09:44:03;10.00;99.90
60309;DHT22;50313;52.894;6.492;2024-03-29T09:46:33;10.10;99.90
60309;DHT22;50313;52.894;6.492;2024-03-29T09:48:59;10.10;99.90
60309;DHT22;50313;52.894;6.492;2024-03-29T09:51:27;10.40;99.90
60309;DHT22;50313;52.894;6.492;2024-03-29T09:53:55;10.60;87.00
60309;DHT22;50313;52.894;6.492;2024-03-29T09:56:23;10.70;99.90
60309;DHT22;50313;52.894;6.492;2024-03-29T09:58:50;11.00;99.90
60309;DHT22;50313;52.894;6.492;2024-03-29T10:01:16;11.20;74.20
60309;DHT22;50313;52.894;6.492;2024-03-29T10:03:46;11.30;1.00
60309;DHT22;50313;52.894;6.492;2024-03-29T10:06:14;11.20;15.10
60309;DHT22;50313;52.894;6.492;2024-03-29T10:08:40;11.50;99.90
60309;DHT22;50313;52.894;6.492;2024-03-29T10:11:06;11.60;99.90
60309;DHT22;50313;52.894;6.492;2024-03-29T10:13:32;12.00;99.90
60309;DHT22;50313;52.894;6.492;2024-03-29T10:16:00;12.10;99.90
60309;DHT22;50313;52.894;6.492;2024-03-29T10:18:28;12.20;99.90
60309;DHT22;50313;52.894;6.492;2024-03-29T10:21:03;12.00;99.90
60309;DHT22;50313;52.894;6.492;2024-03-29T10:23:29;12.10;99.90
60309;DHT22;50313;52.894;6.492;2024-03-29T10:25:55;11.90;27.60
60309;DHT22;50313;52.894;6.492;2024-03-29T10:28:21;12.30;99.90
60309;DHT22;50313;52.894;6.492;2024-03-29T10:30:48;12.40;99.90
60309;DHT22;50313;52.894;6.492;2024-03-29T10:33:18;12.50;99.90
60309;DHT22;50313;52.894;6.492;2024-03-29T10:35:44;12.70;99.90
60309;DHT22;50313;52.894;6.492;2024-03-29T10:38:10;12.70;51.20
60309;DHT22;50313;52.894;6.492;2024-03-29T10:40:40;12.50;1.00
60309;DHT22;50313;52.894;6.492;2024-03-29T10:43:10;12.50;99.90
60309;DHT22;50313;52.894;6.492;2024-03-29T10:45:39;12.40;1.00
60309;DHT22;50313;52.894;6.492;2024-03-29T10:48:06;12.10;1.00
60309;DHT22;50313;52.894;6.492;2024-03-29T10:50:38;12.10;1.00
60309;DHT22;50313;52.894;6.492;2024-03-29T10:53:06;12.30;99.90
60309;DHT22;50313;52.894;6.492;2024-03-29T10:55:37;12.50;1.00
60309;DHT22;50313;52.894;6.492;2024-03-29T10:58:04;12.60;1.00
60309;DHT22;50313;52.894;6.492;2024-03-29T11:00:38;12.60;99.90
60309;DHT22;50313;52.894;6.492;2024-03-29T11:06:03;12.40;99.90
60309;DHT22;50313;52.894;6.492;2024-03-29T11:08:33;12.70;99.90
60309;DHT22;50313;52.894;6.492;2024-03-29T11:11:02;12.70;99.90
60309;DHT22;50313;52.894;6.492;2024-03-29T11:17:01;12.70;99.90
60309;DHT22;50313;52.894;6.492;2024-03-29T11:19:27;12.80;99.90
60309;DHT22;50313;52.894;6.492;2024-03-29T11:21:53;12.80;99.90
60309;DHT22;50313;52.894;6.492;2024-03-29T11:24:22;12.90;99.90
60309;DHT22;50313;52.894;6.492;2024-03-29T11:26:48;12.80;99.90
60309;DHT22;50313;52.894;6.492;2024-03-29T11:29:21;12.80;99.90
60309;DHT22;50313;52.894;6.492;2024-03-29T11:31:47;12.80;1.00
60309;DHT22;50313;52.894;6.492;2024-03-29T11:34:20;12.60;99.90
60309;DHT22;50313;52.894;6.492;2024-03-29T11:36:46;12.80;1.00
60309;DHT22;50313;52.894;6.492;2024-03-29T11:39:22;12.90;99.90
60309;DHT22;50313;52.894;6.492;2024-03-29T11:41:50;13.20;99.90
60309;DHT22;50313;52.894;6.492;2024-03-29T11:44:16;13.20;94.60
60309;DHT22;50313;52.894;6.492;2024-03-29T11:46:43;13.20;1.00
60309;DHT22;50313;52.894;6.492;2024-03-29T11:49:12;12.80;99.90
60309;DHT22;50313;52.894;6.492;2024-03-29T11:51:38;12.90;1.00
60309;DHT22;50313;52.894;6.492;2024-03-29T11:54:04;12.90;1.00
60309;DHT22;50313;52.894;6.492;2024-03-29T11:56:30;12.80;1.00
60309;DHT22;50313;52.894;6.492;2024-03-29T11:58:56;12.90;1.00
60309;DHT22;50313;52.894;6.492;2024-03-29T12:01:28;12.70;99.90
60309;DHT22;50313;52.894;6.492;2024-03-29T12:03:57;12.90;99.90
60309;DHT22;50313;52.894;6.492;2024-03-29T12:06:23;13.20;99.90
60309;DHT22;50313;52.894;6.492;2024-03-29T12:08:49;13.40;99.90
60309;DHT22;50313;52.894;6.492;2024-03-29T12:11:15;13.60;99.90
60309;DHT22;50313;52.894;6.492;2024-03-29T12:13:44;13.60;5.10
60309;DHT22;50313;52.894;6.492;2024-03-29T12:16:10;13.90;99.90
60309;DHT22;50313;52.894;6.492;2024-03-29T12:18:36;13.90;27.80
60309;DHT22;50313;52.894;6.492;2024-03-29T12:21:02;13.90;32.50
60309;DHT22;50313;52.894;6.492;2024-03-29T12:23:29;13.70;1.00
60309;DHT22;50313;52.894;6.492;2024-03-29T12:25:57;13.80;1.00
60309;DHT22;50313;52.894;6.492;2024-03-29T12:28:24;13.70;1.00
60309;DHT22;50313;52.894;6.492;2024-03-29T12:30:50;13.80;1.00
60309;DHT22;50313;52.894;6.492;2024-03-29T12:33:18;13.80;1.00
60309;DHT22;50313;52.894;6.492;2024-03-29T12:35:52;13.60;1.00
60309;DHT22;50313;52.894;6.492;2024-03-29T12:38:22;13.60;1.00
60309;DHT22;50313;52.894;6.492;2024-03-29T12:40:50;13.90;1.00
60309;DHT22;50313;52.894;6.492;2024-03-29T12:43:23;13.80;1.00
60309;DHT22;50313;52.894;6.492;2024-03-29T12:45:50;13.90;1.00
60309;DHT22;50313;52.894;6.492;2024-03-29T12:48:21;14.20;1.00
60309;DHT22;50313;52.894;6.492;2024-03-29T12:50:49;14.40;1.00
60309;DHT22;50313;52.894;6.492;2024-03-29T12:53:15;14.30;99.90
60309;DHT22;50313;52.894;6.492;2024-03-29T12:55:43;14.20;99.90
60309;DHT22;50313;52.894;6.492;2024-03-29T12:58:12;14.10;99.90
60309;DHT22;50313;52.894;6.492;2024-03-29T13:00:39;13.90;99.90
60309;DHT22;50313;52.894;6.492;2024-03-29T13:03:06;14.00;99.90
60309;DHT22;50313;52.894;6.492;2024-03-29T13:05:32;13.70;99.90
60309;DHT22;50313;52.894;6.492;2024-03-29T13:08:05;13.70;99.90
60309;DHT22;50313;52.894;6.492;2024-03-29T13:10:32;13.50;99.90
60309;DHT22;50313;52.894;6.492;2024-03-29T13:12:58;13.40;1.00
60309;DHT22;50313;52.894;6.492;2024-03-29T13:15:25;13.30;99.90
60309;DHT22;50313;52.894;6.492;2024-03-29T13:17:53;13.40;1.00
60309;DHT22;50313;52.894;6.492;2024-03-29T13:20:20;13.40;1.00
60309;DHT22;50313;52.894;6.492;2024-03-29T13:22:47;13.50;1.00
60309;DHT22;50313;52.894;6.492;2024-03-29T13:25:16;13.60;1.00
60309;DHT22;50313;52.894;6.492;2024-03-29T13:27:43;13.80;1.00
60309;DHT22;50313;52.894;6.492;2024-03-29T13:30:12;13.90;1.00
60309;DHT22;50313;52.894;6.492;2024-03-29T13:32:42;13.80;62.80
60309;DHT22;50313;52.894;6.492;2024-03-29T13:35:10;13.70;1.00
60309;DHT22;50313;52.894;6.492;2024-03-29T13:37:43;13.70;1.00
60309;DHT22;50313;52.894;6.492;2024-03-29T13:40:11;13.70;1.00
60309;DHT22;50313;52.894;6.492;2024-03-29T13:42:38;13.60;1.00
60309;DHT22;50313;52.894;6.492;2024-03-29T13:45:05;13.80;1.00
60309;DHT22;50313;52.894;6.492;2024-03-29T13:47:39;13.70;1.00
60309;DHT22;50313;52.894;6.492;2024-03-29T13:50:06;13.60;1.00
60309;DHT22;50313;52.894;6.492;2024-03-29T13:52:32;13.60;47.60
60309;DHT22;50313;52.894;6.492;2024-03-29T13:55:17;13.50;1.00
60309;DHT22;50313;52.894;6.492;2024-03-29T13:57:43;13.60;1.00
60309;DHT22;50313;52.894;6.492;2024-03-29T14:00:10;13.40;1.00
60309;DHT22;50313;52.894;6.492;2024-03-29T14:02:40;13.40;7.70
60309;DHT22;50313;52.894;6.492;2024-03-29T14:05:06;13.40;1.00
60309;DHT22;50313;52.894;6.492;2024-03-29T14:07:32;13.30;3.60
60309;DHT22;50313;52.894;6.492;2024-03-29T14:09:57;13.50;1.00
60309;DHT22;50313;52.894;6.492;2024-03-29T14:12:24;14.00;99.90
60309;DHT22;50313;52.894;6.492;2024-03-29T14:14:51;14.60;52.00
60309;DHT22;50313;52.894;6.492;2024-03-29T14:17:18;15.00;4.70
60309;DHT22;50313;52.894;6.492;2024-03-29T14:19:44;14.80;99.90
60309;DHT22;50313;52.894;6.492;2024-03-29T14:22:10;14.80;99.90
60309;DHT22;50313;52.894;6.492;2024-03-29T14:24:38;14.80;99.90
60309;DHT22;50313;52.894;6.492;2024-03-29T14:27:05;14.40;99.90
60309;DHT22;50313;52.894;6.492;2024-03-29T14:29:32;14.60;99.90
60309;DHT22;50313;52.894;6.492;2024-03-29T14:31:58;14.80;99.90
60309;DHT22;50313;52.894;6.492;2024-03-29T14:34:24;14.80;99.90
60309;DHT22;50313;52.894;6.492;2024-03-29T14:36:51;14.70;99.90
60309;DHT22;50313;52.894;6.492;2024-03-29T14:39:17;14.60;99.90
60309;DHT22;50313;52.894;6.492;2024-03-29T14:41:49;14.90;99.90
60309;DHT22;50313;52.894;6.492;2024-03-29T14:44:17;15.50;99.90
60309;DHT22;50313;52.894;6.492;2024-03-29T14:46:46;15.50;31.40
60309;DHT22;50313;52.894;6.492;2024-03-29T14:49:12;15.50;16.40
60309;DHT22;50313;52.894;6.492;2024-03-29T14:51:40;15.20;42.00
60309;DHT22;50313;52.894;6.492;2024-03-29T14:54:06;14.90;61.70
60309;DHT22;50313;52.894;6.492;2024-03-29T14:56:33;14.60;69.00
60309;DHT22;50313;52.894;6.492;2024-03-29T14:59:06;14.50;1.00
60309;DHT22;50313;52.894;6.492;2024-03-29T15:01:35;14.70;1.00
60309;DHT22;50313;52.894;6.492;2024-03-29T15:04:01;14.80;1.00
60309;DHT22;50313;52.894;6.492;2024-03-29T15:06:28;15.40;1.00
60309;DHT22;50313;52.894;6.492;2024-03-29T15:08:55;15.50;1.00
60309;DHT22;50313;52.894;6.492;2024-03-29T15:11:23;15.60;1.00
60309;DHT22;50313;52.894;6.492;2024-03-29T15:13:49;15.70;1.00
60309;DHT22;50313;52.894;6.492;2024-03-29T15:16:16;15.60;99.90
60309;DHT22;50313;52.894;6.492;2024-03-29T15:18:43;15.30;99.90
60309;DHT22;50313;52.894;6.492;2024-03-29T15:21:08;15.00;99.90
60309;DHT22;50313;52.894;6.492;2024-03-29T15:23:35;14.80;99.90
60309;DHT22;50313;52.894;6.492;2024-03-29T15:26:09;14.70;99.90
60309;DHT22;50313;52.894;6.492;2024-03-29T15:28:35;14.80;99.90
60309;DHT22;50313;52.894;6.492;2024-03-29T15:31:20;15.00;99.90
60309;DHT22;50313;52.894;6.492;2024-03-29T15:33:51;15.10;99.90
60309;DHT22;50313;52.894;6.492;2024-03-29T15:36:19;15.00;99.90
60309;DHT22;50313;52.894;6.492;2024-03-29T15:38:47;14.80;99.90
60309;DHT22;50313;52.894;6.492;2024-03-29T15:41:14;14.70;99.90
60309;DHT22;50313;52.894;6.492;2024-03-29T15:43:40;14.60;99.90
60309;DHT22;50313;52.894;6.492;2024-03-29T15:46:06;14.30;99.90
60309;DHT22;50313;52.894;6.492;2024-03-29T15:48:32;14.20;99.90
60309;DHT22;50313;52.894;6.492;2024-03-29T15:50:58;14.10;99.90